sensor_id;sensor_type;location;lat;lon;timestamp;P1;durP1;ratioP1;P2;durP2;ratioP2
75246;SDS011;63844;50.042;19.224;2023-03-23T00:02:14;68.60;;;34.60;;
75246;SDS011;63844;50.042;19.224;2023-03-23T00:04:42;60.10;;;31.60;;
75246;SDS011;63844;50.042;19.224;2023-03-23T00:07:08;61.40;;;32.70;;
75246;SDS011;63844;50.042;19.224;2023-03-23T00:09:35;60.50;;;32.50;;
75246;SDS011;63844;50.042;19.224;2023-03-23T00:12:07;59.80;;;31.00;;
75246;SDS011;63844;50.042;19.224;2023-03-23T00:14:34;57.70;;;31.70;;
75246;SDS011;63844;50.042;19.224;2023-03-23T00:17:09;58.80;;;31.40;;
75246;SDS011;63844;50.042;19.224;2023-03-23T00:19:37;62.60;;;34.40;;
75246;SDS011;63844;50.042;19.224;2023-03-23T00:22:17;56.40;;;31.00;;
75246;SDS011;63844;50.042;19.224;2023-03-23T00:24:45;58.00;;;32.90;;
75246;SDS011;63844;50.042;19.224;2023-03-23T00:27:11;62.90;;;34.60;;
75246;SDS011;63844;50.042;19.224;2023-03-23T00:29:41;60.60;;;32.50;;
75246;SDS011;63844;50.042;19.224;2023-03-23T00:32:08;61.10;;;33.10;;
75246;SDS011;63844;50.042;19.224;2023-03-23T00:34:41;62.80;;;34.40;;
75246;SDS011;63844;50.042;19.224;2023-03-23T00:37:10;65.90;;;34.60;;
75246;SDS011;63844;50.042;19.224;2023-03-23T00:39:37;63.20;;;33.60;;
75246;SDS011;63844;50.042;19.224;2023-03-23T00:42:04;61.00;;;30.10;;
75246;SDS011;63844;50.042;19.224;2023-03-23T00:44:32;60.30;;;30.30;;
75246;SDS011;63844;50.042;19.224;2023-03-23T00:47:01;64.10;;;33.10;;
75246;SDS011;63844;50.042;19.224;2023-03-23T00:49:29;58.40;;;31.00;;
75246;SDS011;63844;50.042;19.224;2023-03-23T00:51:56;63.00;;;33.00;;
75246;SDS011;63844;50.042;19.224;2023-03-23T00:54:24;64.00;;;33.30;;
75246;SDS011;63844;50.042;19.224;2023-03-23T00:59:18;59.60;;;30.40;;
75246;SDS011;63844;50.042;19.224;2023-03-23T01:01:45;62.00;;;31.50;;
75246;SDS011;63844;50.042;19.224;2023-03-23T01:04:12;68.90;;;33.20;;
75246;SDS011;63844;50.042;19.224;2023-03-23T01:06:41;63.80;;;31.70;;
75246;SDS011;63844;50.042;19.224;2023-03-23T01:09:13;65.90;;;31.40;;
75246;SDS011;63844;50.042;19.224;2023-03-23T01:11:41;69.80;;;35.30;;
75246;SDS011;63844;50.042;19.224;2023-03-23T01:14:09;58.80;;;29.20;;
75246;SDS011;63844;50.042;19.224;2023-03-23T01:16:37;62.20;;;31.70;;
75246;SDS011;63844;50.042;19.224;2023-03-23T01:19:03;65.40;;;33.10;;
75246;SDS011;63844;50.042;19.224;2023-03-23T01:21:30;62.80;;;31.60;;
75246;SDS011;63844;50.042;19.224;2023-03-23T01:23:56;63.50;;;30.00;;
75246;SDS011;63844;50.042;19.224;2023-03-23T01:26:24;65.70;;;32.00;;
75246;SDS011;63844;50.042;19.224;2023-03-23T01:28:52;67.20;;;32.70;;
75246;SDS011;63844;50.042;19.224;2023-03-23T01:31:20;63.50;;;31.10;;
75246;SDS011;63844;50.042;19.224;2023-03-23T01:33:48;65.60;;;32.30;;
75246;SDS011;63844;50.042;19.224;2023-03-23T01:36:19;64.50;;;33.40;;
75246;SDS011;63844;50.042;19.224;2023-03-23T01:38:48;74.90;;;34.30;;
75246;SDS011;63844;50.042;19.224;2023-03-23T01:41:16;71.00;;;35.30;;
75246;SDS011;63844;50.042;19.224;2023-03-23T01:44:04;69.80;;;33.70;;
75246;SDS011;63844;50.042;19.224;2023-03-23T01:46:36;60.10;;;30.70;;
75246;SDS011;63844;50.042;19.224;2023-03-23T01:49:06;65.10;;;34.40;;
75246;SDS011;63844;50.042;19.224;2023-03-23T01:51:36;53.00;;;25.10;;
75246;SDS011;63844;50.042;19.224;2023-03-23T01:54:07;60.90;;;30.30;;
75246;SDS011;63844;50.042;19.224;2023-03-23T01:56:41;58.20;;;30.40;;
75246;SDS011;63844;50.042;19.224;2023-03-23T01:59:13;58.50;;;29.90;;
75246;SDS011;63844;50.042;19.224;2023-03-23T02:01:41;55.30;;;29.40;;
75246;SDS011;63844;50.042;19.224;2023-03-23T02:04:11;54.40;;;28.60;;
75246;SDS011;63844;50.042;19.224;2023-03-23T02:06:41;56.80;;;27.90;;
75246;SDS011;63844;50.042;19.224;2023-03-23T02:09:08;56.60;;;29.20;;
75246;SDS011;63844;50.042;19.224;2023-03-23T02:11:35;51.60;;;27.10;;
75246;SDS011;63844;50.042;19.224;2023-03-23T02:14:01;57.60;;;27.40;;
75246;SDS011;63844;50.042;19.224;2023-03-23T02:16:33;49.40;;;26.50;;
75246;SDS011;63844;50.042;19.224;2023-03-23T02:19:07;57.10;;;28.40;;
75246;SDS011;63844;50.042;19.224;2023-03-23T02:21:44;57.40;;;29.10;;
75246;SDS011;63844;50.042;19.224;2023-03-23T02:24:30;49.20;;;27.10;;
75246;SDS011;63844;50.042;19.224;2023-03-23T02:27:11;51.60;;;25.50;;
75246;SDS011;63844;50.042;19.224;2023-03-23T02:32:51;58.30;;;27.80;;
75246;SDS011;63844;50.042;19.224;2023-03-23T02:36:00;46.00;;;25.70;;
75246;SDS011;63844;50.042;19.224;2023-03-23T02:38:38;54.50;;;27.40;;
75246;SDS011;63844;50.042;19.224;2023-03-23T02:41:07;52.40;;;27.30;;
75246;SDS011;63844;50.042;19.224;2023-03-23T02:43:38;47.30;;;26.30;;
75246;SDS011;63844;50.042;19.224;2023-03-23T02:46:08;51.20;;;27.20;;
75246;SDS011;63844;50.042;19.224;2023-03-23T02:48:37;54.80;;;29.00;;
75246;SDS011;63844;50.042;19.224;2023-03-23T02:51:06;53.30;;;26.30;;
75246;SDS011;63844;50.042;19.224;2023-03-23T02:53:36;55.10;;;27.50;;
75246;SDS011;63844;50.042;19.224;2023-03-23T02:56:06;51.60;;;25.80;;
75246;SDS011;63844;50.042;19.224;2023-03-23T02:58:35;49.80;;;25.40;;
75246;SDS011;63844;50.042;19.224;2023-03-23T03:01:14;49.50;;;26.20;;
75246;SDS011;63844;50.042;19.224;2023-03-23T03:04:03;46.50;;;23.50;;
75246;SDS011;63844;50.042;19.224;2023-03-23T03:06:37;51.00;;;26.20;;
75246;SDS011;63844;50.042;19.224;2023-03-23T03:09:36;45.30;;;23.70;;
75246;SDS011;63844;50.042;19.224;2023-03-23T03:12:15;42.20;;;23.20;;
75246;SDS011;63844;50.042;19.224;2023-03-23T03:15:02;45.30;;;22.90;;
75246;SDS011;63844;50.042;19.224;2023-03-23T03:17:37;40.20;;;19.80;;
75246;SDS011;63844;50.042;19.224;2023-03-23T03:20:09;46.60;;;24.00;;
75246;SDS011;63844;50.042;19.224;2023-03-23T03:22:38;41.30;;;22.50;;
75246;SDS011;63844;50.042;19.224;2023-03-23T03:25:11;46.90;;;23.70;;
75246;SDS011;63844;50.042;19.224;2023-03-23T03:27:40;46.20;;;24.10;;
75246;SDS011;63844;50.042;19.224;2023-03-23T03:30:10;58.60;;;29.00;;
75246;SDS011;63844;50.042;19.224;2023-03-23T03:32:43;55.50;;;28.90;;
75246;SDS011;63844;50.042;19.224;2023-03-23T03:35:12;57.80;;;28.10;;
75246;SDS011;63844;50.042;19.224;2023-03-23T03:37:40;51.60;;;25.80;;
75246;SDS011;63844;50.042;19.224;2023-03-23T03:42:38;44.60;;;23.70;;
75246;SDS011;63844;50.042;19.224;2023-03-23T03:45:06;46.80;;;23.90;;
75246;SDS011;63844;50.042;19.224;2023-03-23T03:47:35;54.30;;;28.40;;
75246;SDS011;63844;50.042;19.224;2023-03-23T03:50:01;51.00;;;26.00;;
75246;SDS011;63844;50.042;19.224;2023-03-23T03:54:55;45.70;;;24.00;;
75246;SDS011;63844;50.042;19.224;2023-03-23T03:57:23;49.70;;;27.20;;
75246;SDS011;63844;50.042;19.224;2023-03-23T03:59:50;54.20;;;28.30;;
75246;SDS011;63844;50.042;19.224;2023-03-23T04:02:17;49.30;;;27.10;;
75246;SDS011;63844;50.042;19.224;2023-03-23T04:04:46;52.60;;;29.00;;
75246;SDS011;63844;50.042;19.224;2023-03-23T04:07:14;54.00;;;28.00;;
75246;SDS011;63844;50.042;19.224;2023-03-23T04:09:42;55.80;;;29.10;;
75246;SDS011;63844;50.042;19.224;2023-03-23T04:12:12;56.40;;;29.70;;
75246;SDS011;63844;50.042;19.224;2023-03-23T04:14:40;59.40;;;29.90;;
75246;SDS011;63844;50.042;19.224;2023-03-23T04:17:06;56.30;;;30.10;;
75246;SDS011;63844;50.042;19.224;2023-03-23T04:19:35;55.80;;;29.70;;
75246;SDS011;63844;50.042;19.224;2023-03-23T04:22:03;56.20;;;29.80;;
75246;SDS011;63844;50.042;19.224;2023-03-23T04:24:31;56.50;;;31.50;;
75246;SDS011;63844;50.042;19.224;2023-03-23T04:26:59;54.90;;;29.50;;
75246;SDS011;63844;50.042;19.224;2023-03-23T04:29:26;59.70;;;31.00;;
75246;SDS011;63844;50.042;19.224;2023-03-23T04:31:53;60.70;;;30.20;;
75246;SDS011;63844;50.042;19.224;2023-03-23T04:34:22;67.00;;;33.50;;
75246;SDS011;63844;50.042;19.224;2023-03-23T04:36:49;63.50;;;32.40;;
75246;SDS011;63844;50.042;19.224;2023-03-23T04:39:16;57.70;;;30.80;;
75246;SDS011;63844;50.042;19.224;2023-03-23T04:41:44;61.40;;;32.80;;
75246;SDS011;63844;50.042;19.224;2023-03-23T04:44:12;59.60;;;30.90;;
75246;SDS011;63844;50.042;19.224;2023-03-23T04:46:44;64.90;;;34.20;;
75246;SDS011;63844;50.042;19.224;2023-03-23T04:49:12;64.00;;;32.80;;
75246;SDS011;63844;50.042;19.224;2023-03-23T04:51:40;61.50;;;32.40;;
75246;SDS011;63844;50.042;19.224;2023-03-23T04:54:07;70.80;;;36.90;;
75246;SDS011;63844;50.042;19.224;2023-03-23T04:56:33;80.40;;;41.80;;
75246;SDS011;63844;50.042;19.224;2023-03-23T04:58:59;74.70;;;37.70;;
75246;SDS011;63844;50.042;19.224;2023-03-23T05:01:27;79.50;;;38.40;;
75246;SDS011;63844;50.042;19.224;2023-03-23T05:03:53;68.90;;;36.60;;
75246;SDS011;63844;50.042;19.224;2023-03-23T05:06:20;73.80;;;39.40;;
75246;SDS011;63844;50.042;19.224;2023-03-23T05:08:48;71.80;;;39.30;;
75246;SDS011;63844;50.042;19.224;2023-03-23T05:11:14;75.00;;;39.10;;
75246;SDS011;63844;50.042;19.224;2023-03-23T05:13:41;72.60;;;37.20;;
75246;SDS011;63844;50.042;19.224;2023-03-23T05:16:07;69.10;;;36.80;;
75246;SDS011;63844;50.042;19.224;2023-03-23T05:18:34;72.00;;;38.50;;
75246;SDS011;63844;50.042;19.224;2023-03-23T05:21:01;71.60;;;38.40;;
75246;SDS011;63844;50.042;19.224;2023-03-23T05:23:29;75.90;;;41.10;;
75246;SDS011;63844;50.042;19.224;2023-03-23T05:25:59;73.30;;;37.70;;
75246;SDS011;63844;50.042;19.224;2023-03-23T05:28:29;69.50;;;36.50;;
75246;SDS011;63844;50.042;19.224;2023-03-23T05:30:56;68.40;;;36.20;;
75246;SDS011;63844;50.042;19.224;2023-03-23T05:33:23;68.80;;;36.20;;
75246;SDS011;63844;50.042;19.224;2023-03-23T05:35:49;67.40;;;36.00;;
75246;SDS011;63844;50.042;19.224;2023-03-23T05:38:16;66.10;;;35.60;;
75246;SDS011;63844;50.042;19.224;2023-03-23T05:40:42;60.50;;;30.80;;
75246;SDS011;63844;50.042;19.224;2023-03-23T05:43:09;66.30;;;34.20;;
75246;SDS011;63844;50.042;19.224;2023-03-23T05:45:36;63.30;;;33.70;;
75246;SDS011;63844;50.042;19.224;2023-03-23T05:48:03;72.20;;;39.10;;
75246;SDS011;63844;50.042;19.224;2023-03-23T05:50:29;68.50;;;37.00;;
75246;SDS011;63844;50.042;19.224;2023-03-23T05:52:56;77.10;;;39.40;;
75246;SDS011;63844;50.042;19.224;2023-03-23T05:55:23;79.10;;;41.50;;
75246;SDS011;63844;50.042;19.224;2023-03-23T05:57:50;76.70;;;40.80;;
75246;SDS011;63844;50.042;19.224;2023-03-23T06:00:16;72.00;;;38.10;;
75246;SDS011;63844;50.042;19.224;2023-03-23T06:02:49;86.90;;;43.00;;
75246;SDS011;63844;50.042;19.224;2023-03-23T06:05:17;83.70;;;45.10;;
75246;SDS011;63844;50.042;19.224;2023-03-23T06:07:43;82.30;;;45.60;;
75246;SDS011;63844;50.042;19.224;2023-03-23T06:10:10;86.80;;;44.40;;
75246;SDS011;63844;50.042;19.224;2023-03-23T06:12:37;85.20;;;45.00;;
75246;SDS011;63844;50.042;19.224;2023-03-23T06:15:05;84.60;;;46.50;;
75246;SDS011;63844;50.042;19.224;2023-03-23T06:17:33;83.20;;;45.30;;
75246;SDS011;63844;50.042;19.224;2023-03-23T06:20:03;63.40;;;35.30;;
75246;SDS011;63844;50.042;19.224;2023-03-23T06:22:35;67.90;;;39.80;;
75246;SDS011;63844;50.042;19.224;2023-03-23T06:25:06;61.70;;;32.80;;
75246;SDS011;63844;50.042;19.224;2023-03-23T06:27:33;58.10;;;32.40;;
75246;SDS011;63844;50.042;19.224;2023-03-23T06:30:01;62.00;;;33.20;;
75246;SDS011;63844;50.042;19.224;2023-03-23T06:32:29;59.20;;;34.80;;
75246;SDS011;63844;50.042;19.224;2023-03-23T06:34:57;64.60;;;36.10;;
75246;SDS011;63844;50.042;19.224;2023-03-23T06:37:24;62.50;;;34.10;;
75246;SDS011;63844;50.042;19.224;2023-03-23T06:39:51;54.20;;;29.80;;
75246;SDS011;63844;50.042;19.224;2023-03-23T06:42:18;38.70;;;20.80;;
75246;SDS011;63844;50.042;19.224;2023-03-23T06:44:44;37.20;;;18.30;;
75246;SDS011;63844;50.042;19.224;2023-03-23T06:47:11;25.80;;;14.10;;
75246;SDS011;63844;50.042;19.224;2023-03-23T06:49:38;25.60;;;12.70;;
75246;SDS011;63844;50.042;19.224;2023-03-23T06:52:04;22.30;;;11.40;;
75246;SDS011;63844;50.042;19.224;2023-03-23T06:54:32;17.20;;;9.80;;
75246;SDS011;63844;50.042;19.224;2023-03-23T06:56:59;16.10;;;9.70;;
75246;SDS011;63844;50.042;19.224;2023-03-23T07:01:52;22.20;;;9.50;;
75246;SDS011;63844;50.042;19.224;2023-03-23T07:04:19;18.50;;;10.20;;
75246;SDS011;63844;50.042;19.224;2023-03-23T07:06:46;34.30;;;13.10;;
75246;SDS011;63844;50.042;19.224;2023-03-23T07:09:13;22.20;;;12.00;;
75246;SDS011;63844;50.042;19.224;2023-03-23T07:14:06;15.80;;;9.30;;
75246;SDS011;63844;50.042;19.224;2023-03-23T07:18:59;15.60;;;8.10;;
75246;SDS011;63844;50.042;19.224;2023-03-23T07:21:26;13.40;;;7.60;;
75246;SDS011;63844;50.042;19.224;2023-03-23T07:23:52;12.30;;;6.80;;
75246;SDS011;63844;50.042;19.224;2023-03-23T07:26:19;11.50;;;7.10;;
75246;SDS011;63844;50.042;19.224;2023-03-23T07:28:46;13.10;;;6.70;;
75246;SDS011;63844;50.042;19.224;2023-03-23T07:31:13;16.70;;;8.70;;
75246;SDS011;63844;50.042;19.224;2023-03-23T07:36:06;11.50;;;6.90;;
75246;SDS011;63844;50.042;19.224;2023-03-23T07:38:33;10.60;;;6.90;;
75246;SDS011;63844;50.042;19.224;2023-03-23T07:43:26;12.60;;;5.80;;
75246;SDS011;63844;50.042;19.224;2023-03-23T07:45:53;10.90;;;5.20;;
75246;SDS011;63844;50.042;19.224;2023-03-23T07:48:19;8.20;;;4.60;;
75246;SDS011;63844;50.042;19.224;2023-03-23T07:50:46;9.20;;;4.80;;
75246;SDS011;63844;50.042;19.224;2023-03-23T07:53:13;8.20;;;4.70;;
75246;SDS011;63844;50.042;19.224;2023-03-23T07:55:39;6.30;;;4.10;;
75246;SDS011;63844;50.042;19.224;2023-03-23T07:58:06;9.40;;;5.20;;
75246;SDS011;63844;50.042;19.224;2023-03-23T08:00:33;8.50;;;5.50;;
75246;SDS011;63844;50.042;19.224;2023-03-23T08:03:01;12.10;;;5.70;;
75246;SDS011;63844;50.042;19.224;2023-03-23T08:05:30;10.50;;;6.40;;
75246;SDS011;63844;50.042;19.224;2023-03-23T08:07:58;10.50;;;5.70;;
75246;SDS011;63844;50.042;19.224;2023-03-23T08:10:26;14.00;;;5.80;;
75246;SDS011;63844;50.042;19.224;2023-03-23T08:12:54;8.90;;;3.90;;
75246;SDS011;63844;50.042;19.224;2023-03-23T08:15:22;9.20;;;4.30;;
75246;SDS011;63844;50.042;19.224;2023-03-23T08:17:49;13.40;;;4.40;;
75246;SDS011;63844;50.042;19.224;2023-03-23T08:20:17;10.00;;;3.90;;
75246;SDS011;63844;50.042;19.224;2023-03-23T08:22:54;8.90;;;5.20;;
75246;SDS011;63844;50.042;19.224;2023-03-23T08:25:22;9.00;;;4.20;;
75246;SDS011;63844;50.042;19.224;2023-03-23T08:27:50;6.70;;;4.10;;
75246;SDS011;63844;50.042;19.224;2023-03-23T08:32:45;8.60;;;4.70;;
75246;SDS011;63844;50.042;19.224;2023-03-23T08:35:13;9.00;;;4.00;;
75246;SDS011;63844;50.042;19.224;2023-03-23T08:37:41;7.70;;;4.20;;
75246;SDS011;63844;50.042;19.224;2023-03-23T08:42:39;8.00;;;3.60;;
75246;SDS011;63844;50.042;19.224;2023-03-23T08:45:09;8.70;;;4.00;;
75246;SDS011;63844;50.042;19.224;2023-03-23T08:47:38;8.00;;;3.40;;
75246;SDS011;63844;50.042;19.224;2023-03-23T08:50:05;6.40;;;3.50;;
75246;SDS011;63844;50.042;19.224;2023-03-23T08:52:33;7.00;;;3.70;;
75246;SDS011;63844;50.042;19.224;2023-03-23T08:54:59;6.20;;;2.90;;
75246;SDS011;63844;50.042;19.224;2023-03-23T08:59:52;5.10;;;2.40;;
75246;SDS011;63844;50.042;19.224;2023-03-23T09:02:26;3.50;;;1.70;;
75246;SDS011;63844;50.042;19.224;2023-03-23T09:04:53;3.20;;;2.00;;
75246;SDS011;63844;50.042;19.224;2023-03-23T09:07:20;2.80;;;2.00;;
75246;SDS011;63844;50.042;19.224;2023-03-23T09:12:13;6.70;;;1.80;;
75246;SDS011;63844;50.042;19.224;2023-03-23T09:14:40;6.80;;;2.70;;
75246;SDS011;63844;50.042;19.224;2023-03-23T09:17:06;5.70;;;2.30;;
75246;SDS011;63844;50.042;19.224;2023-03-23T09:19:33;4.40;;;2.80;;
75246;SDS011;63844;50.042;19.224;2023-03-23T09:22:01;5.10;;;2.50;;
75246;SDS011;63844;50.042;19.224;2023-03-23T09:24:29;4.30;;;1.90;;
75246;SDS011;63844;50.042;19.224;2023-03-23T09:26:56;5.80;;;2.30;;
75246;SDS011;63844;50.042;19.224;2023-03-23T09:29:25;5.10;;;3.10;;
75246;SDS011;63844;50.042;19.224;2023-03-23T09:31:53;4.70;;;2.60;;
75246;SDS011;63844;50.042;19.224;2023-03-23T09:34:20;3.20;;;2.10;;
75246;SDS011;63844;50.042;19.224;2023-03-23T09:36:47;3.40;;;1.90;;
75246;SDS011;63844;50.042;19.224;2023-03-23T09:39:14;4.60;;;2.50;;
75246;SDS011;63844;50.042;19.224;2023-03-23T09:41:58;7.50;;;2.10;;
75246;SDS011;63844;50.042;19.224;2023-03-23T09:44:39;3.70;;;2.40;;
75246;SDS011;63844;50.042;19.224;2023-03-23T09:49:54;4.50;;;3.20;;
75246;SDS011;63844;50.042;19.224;2023-03-23T09:52:30;3.80;;;2.20;;
75246;SDS011;63844;50.042;19.224;2023-03-23T09:55:07;3.90;;;2.40;;
75246;SDS011;63844;50.042;19.224;2023-03-23T09:57:40;4.00;;;2.30;;
75246;SDS011;63844;50.042;19.224;2023-03-23T10:00:26;4.90;;;2.10;;
75246;SDS011;63844;50.042;19.224;2023-03-23T10:05:55;5.70;;;2.30;;
75246;SDS011;63844;50.042;19.224;2023-03-23T10:08:23;3.00;;;2.00;;
75246;SDS011;63844;50.042;19.224;2023-03-23T10:11:02;4.50;;;1.80;;
75246;SDS011;63844;50.042;19.224;2023-03-23T10:16:05;4.30;;;2.20;;
75246;SDS011;63844;50.042;19.224;2023-03-23T10:21:56;4.90;;;2.20;;
75246;SDS011;63844;50.042;19.224;2023-03-23T10:25:19;3.30;;;2.00;;
75246;SDS011;63844;50.042;19.224;2023-03-23T10:30:17;6.30;;;2.70;;
75246;SDS011;63844;50.042;19.224;2023-03-23T10:32:58;6.10;;;2.40;;
75246;SDS011;63844;50.042;19.224;2023-03-23T10:35:34;4.80;;;2.40;;
75246;SDS011;63844;50.042;19.224;2023-03-23T10:38:11;3.80;;;2.10;;
75246;SDS011;63844;50.042;19.224;2023-03-23T10:40:56;3.60;;;1.80;;
75246;SDS011;63844;50.042;19.224;2023-03-23T10:43:26;4.10;;;2.20;;
75246;SDS011;63844;50.042;19.224;2023-03-23T10:45:55;4.50;;;2.60;;
75246;SDS011;63844;50.042;19.224;2023-03-23T10:48:38;10.40;;;3.60;;
75246;SDS011;63844;50.042;19.224;2023-03-23T10:51:08;5.50;;;2.40;;
75246;SDS011;63844;50.042;19.224;2023-03-23T10:53:42;8.20;;;2.30;;
75246;SDS011;63844;50.042;19.224;2023-03-23T10:56:27;4.00;;;2.20;;
75246;SDS011;63844;50.042;19.224;2023-03-23T10:58:54;6.10;;;3.20;;
75246;SDS011;63844;50.042;19.224;2023-03-23T11:01:29;3.80;;;2.10;;
75246;SDS011;63844;50.042;19.224;2023-03-23T11:03:57;5.60;;;2.10;;
75246;SDS011;63844;50.042;19.224;2023-03-23T11:06:24;5.40;;;2.10;;
75246;SDS011;63844;50.042;19.224;2023-03-23T11:08:55;5.90;;;2.20;;
75246;SDS011;63844;50.042;19.224;2023-03-23T11:11:25;6.90;;;3.10;;
75246;SDS011;63844;50.042;19.224;2023-03-23T11:14:02;9.40;;;3.00;;
75246;SDS011;63844;50.042;19.224;2023-03-23T11:16:52;6.10;;;3.40;;
75246;SDS011;63844;50.042;19.224;2023-03-23T11:19:22;4.00;;;2.00;;
75246;SDS011;63844;50.042;19.224;2023-03-23T11:21:52;8.00;;;1.90;;
75246;SDS011;63844;50.042;19.224;2023-03-23T11:24:25;5.10;;;1.50;;
75246;SDS011;63844;50.042;19.224;2023-03-23T11:26:53;7.70;;;4.50;;
75246;SDS011;63844;50.042;19.224;2023-03-23T11:29:24;7.40;;;3.00;;
75246;SDS011;63844;50.042;19.224;2023-03-23T11:32:14;8.00;;;4.60;;
75246;SDS011;63844;50.042;19.224;2023-03-23T11:34:42;5.50;;;2.30;;
75246;SDS011;63844;50.042;19.224;2023-03-23T11:42:23;5.30;;;2.40;;
75246;SDS011;63844;50.042;19.224;2023-03-23T11:44:54;3.90;;;1.60;;
75246;SDS011;63844;50.042;19.224;2023-03-23T11:47:39;3.80;;;2.00;;
75246;SDS011;63844;50.042;19.224;2023-03-23T11:50:12;4.80;;;2.00;;
75246;SDS011;63844;50.042;19.224;2023-03-23T11:52:51;4.40;;;2.10;;
75246;SDS011;63844;50.042;19.224;2023-03-23T11:55:21;4.10;;;1.70;;
75246;SDS011;63844;50.042;19.224;2023-03-23T11:57:52;4.30;;;2.00;;
75246;SDS011;63844;50.042;19.224;2023-03-23T12:00:20;3.90;;;1.50;;
75246;SDS011;63844;50.042;19.224;2023-03-23T12:02:56;5.10;;;2.20;;
75246;SDS011;63844;50.042;19.224;2023-03-23T12:11:10;3.90;;;1.50;;
75246;SDS011;63844;50.042;19.224;2023-03-23T12:13:59;4.70;;;2.30;;
75246;SDS011;63844;50.042;19.224;2023-03-23T12:16:48;3.40;;;1.70;;
75246;SDS011;63844;50.042;19.224;2023-03-23T12:20:04;2.90;;;1.80;;
75246;SDS011;63844;50.042;19.224;2023-03-23T12:28:11;4.20;;;1.70;;
75246;SDS011;63844;50.042;19.224;2023-03-23T12:34:01;3.10;;;1.50;;
75246;SDS011;63844;50.042;19.224;2023-03-23T12:42:10;3.80;;;1.40;;
75246;SDS011;63844;50.042;19.224;2023-03-23T12:44:49;4.60;;;1.90;;
75246;SDS011;63844;50.042;19.224;2023-03-23T12:47:40;2.40;;;1.30;;
75246;SDS011;63844;50.042;19.224;2023-03-23T12:50:29;3.40;;;1.70;;
75246;SDS011;63844;50.042;19.224;2023-03-23T12:53:16;3.90;;;1.80;;
75246;SDS011;63844;50.042;19.224;2023-03-23T12:58:47;4.10;;;1.70;;
75246;SDS011;63844;50.042;19.224;2023-03-23T13:01:18;2.70;;;1.40;;
75246;SDS011;63844;50.042;19.224;2023-03-23T13:03:57;2.60;;;1.40;;
75246;SDS011;63844;50.042;19.224;2023-03-23T13:09:12;3.30;;;1.30;;
75246;SDS011;63844;50.042;19.224;2023-03-23T13:11:48;4.50;;;1.90;;
75246;SDS011;63844;50.042;19.224;2023-03-23T13:22:43;3.50;;;1.80;;
75246;SDS011;63844;50.042;19.224;2023-03-23T13:25:17;2.20;;;1.80;;
75246;SDS011;63844;50.042;19.224;2023-03-23T13:27:55;4.30;;;1.60;;
75246;SDS011;63844;50.042;19.224;2023-03-23T13:30:24;5.20;;;1.50;;
75246;SDS011;63844;50.042;19.224;2023-03-23T13:32:51;2.80;;;1.50;;
75246;SDS011;63844;50.042;19.224;2023-03-23T13:35:33;4.50;;;1.60;;
75246;SDS011;63844;50.042;19.224;2023-03-23T13:38:11;2.70;;;1.70;;
75246;SDS011;63844;50.042;19.224;2023-03-23T13:40:43;2.00;;;1.10;;
75246;SDS011;63844;50.042;19.224;2023-03-23T13:43:11;3.70;;;1.10;;
75246;SDS011;63844;50.042;19.224;2023-03-23T13:45:45;3.60;;;1.70;;
75246;SDS011;63844;50.042;19.224;2023-03-23T13:53:27;3.90;;;2.10;;
75246;SDS011;63844;50.042;19.224;2023-03-23T13:56:21;4.30;;;1.50;;
75246;SDS011;63844;50.042;19.224;2023-03-23T13:59:12;3.80;;;1.60;;
75246;SDS011;63844;50.042;19.224;2023-03-23T14:01:41;3.30;;;1.90;;
75246;SDS011;63844;50.042;19.224;2023-03-23T14:04:15;1.90;;;1.50;;
75246;SDS011;63844;50.042;19.224;2023-03-23T14:06:44;2.90;;;1.30;;
75246;SDS011;63844;50.042;19.224;2023-03-23T14:09:28;4.50;;;1.50;;
75246;SDS011;63844;50.042;19.224;2023-03-23T14:11:59;4.80;;;1.70;;
75246;SDS011;63844;50.042;19.224;2023-03-23T14:14:34;2.50;;;1.30;;
75246;SDS011;63844;50.042;19.224;2023-03-23T14:17:10;4.30;;;1.70;;
75246;SDS011;63844;50.042;19.224;2023-03-23T14:19:41;4.20;;;2.00;;
75246;SDS011;63844;50.042;19.224;2023-03-23T14:22:18;4.00;;;1.60;;
75246;SDS011;63844;50.042;19.224;2023-03-23T14:24:59;3.00;;;1.70;;
75246;SDS011;63844;50.042;19.224;2023-03-23T14:27:27;4.50;;;1.90;;
75246;SDS011;63844;50.042;19.224;2023-03-23T14:29:57;4.80;;;1.70;;
75246;SDS011;63844;50.042;19.224;2023-03-23T14:32:27;5.40;;;1.30;;
75246;SDS011;63844;50.042;19.224;2023-03-23T14:34:56;4.90;;;1.50;;
75246;SDS011;63844;50.042;19.224;2023-03-23T14:37:23;1.90;;;1.60;;
75246;SDS011;63844;50.042;19.224;2023-03-23T14:39:51;2.60;;;1.60;;
75246;SDS011;63844;50.042;19.224;2023-03-23T14:42:26;4.20;;;2.70;;
75246;SDS011;63844;50.042;19.224;2023-03-23T14:44:55;5.30;;;2.20;;
75246;SDS011;63844;50.042;19.224;2023-03-23T14:47:24;7.00;;;2.90;;
75246;SDS011;63844;50.042;19.224;2023-03-23T14:52:24;4.40;;;2.50;;
75246;SDS011;63844;50.042;19.224;2023-03-23T14:54:53;6.10;;;2.40;;
75246;SDS011;63844;50.042;19.224;2023-03-23T14:59:49;3.60;;;2.30;;
75246;SDS011;63844;50.042;19.224;2023-03-23T15:02:17;5.50;;;2.60;;
75246;SDS011;63844;50.042;19.224;2023-03-23T15:05:09;4.70;;;2.00;;
75246;SDS011;63844;50.042;19.224;2023-03-23T15:07:43;3.00;;;1.90;;
75246;SDS011;63844;50.042;19.224;2023-03-23T15:10:16;7.90;;;2.00;;
75246;SDS011;63844;50.042;19.224;2023-03-23T15:12:46;6.30;;;1.90;;
75246;SDS011;63844;50.042;19.224;2023-03-23T15:15:19;3.40;;;1.90;;
75246;SDS011;63844;50.042;19.224;2023-03-23T15:17:51;2.90;;;1.50;;
75246;SDS011;63844;50.042;19.224;2023-03-23T15:22:48;3.50;;;1.90;;
75246;SDS011;63844;50.042;19.224;2023-03-23T15:25:20;5.00;;;2.10;;
75246;SDS011;63844;50.042;19.224;2023-03-23T15:27:50;3.50;;;1.90;;
75246;SDS011;63844;50.042;19.224;2023-03-23T15:32:52;3.80;;;2.10;;
75246;SDS011;63844;50.042;19.224;2023-03-23T15:35:21;4.00;;;1.90;;
75246;SDS011;63844;50.042;19.224;2023-03-23T15:37:56;4.60;;;2.60;;
75246;SDS011;63844;50.042;19.224;2023-03-23T15:40:25;6.30;;;2.50;;
75246;SDS011;63844;50.042;19.224;2023-03-23T15:48:46;6.40;;;2.80;;
75246;SDS011;63844;50.042;19.224;2023-03-23T15:51:18;17.20;;;3.80;;
75246;SDS011;63844;50.042;19.224;2023-03-23T15:53:46;6.90;;;2.40;;
75246;SDS011;63844;50.042;19.224;2023-03-23T15:56:13;4.70;;;2.30;;
75246;SDS011;63844;50.042;19.224;2023-03-23T15:58:40;4.80;;;2.70;;
75246;SDS011;63844;50.042;19.224;2023-03-23T16:01:10;4.30;;;1.90;;
75246;SDS011;63844;50.042;19.224;2023-03-23T16:06:12;4.20;;;2.00;;
75246;SDS011;63844;50.042;19.224;2023-03-23T16:08:40;5.00;;;2.00;;
75246;SDS011;63844;50.042;19.224;2023-03-23T16:11:10;4.40;;;2.20;;
75246;SDS011;63844;50.042;19.224;2023-03-23T16:13:39;5.20;;;2.40;;
75246;SDS011;63844;50.042;19.224;2023-03-23T16:16:10;3.40;;;2.40;;
75246;SDS011;63844;50.042;19.224;2023-03-23T16:18:40;4.40;;;2.80;;
75246;SDS011;63844;50.042;19.224;2023-03-23T16:23:33;8.00;;;2.20;;
75246;SDS011;63844;50.042;19.224;2023-03-23T16:28:26;5.70;;;3.30;;
75246;SDS011;63844;50.042;19.224;2023-03-23T16:33:19;8.10;;;4.50;;
75246;SDS011;63844;50.042;19.224;2023-03-23T16:35:45;8.70;;;5.30;;
75246;SDS011;63844;50.042;19.224;2023-03-23T16:40:42;6.80;;;3.50;;
75246;SDS011;63844;50.042;19.224;2023-03-23T16:43:09;28.00;;;24.90;;